CYHA

Quaqtaq Airport

Quaqtaq, Quebec, Canada
METAR CYHA 192200Z 18018KT 15SM DRSN FEW007 FEW250 BKN270 M21/M25 A2965 RMK ST1CI2CI5 ST TR SNW COV/MED PACK LAST STFD OBS/NEXT 201300 UTC SLP045
Observed Flight Rules
Nov-19 @ 22:00 UTC (41 minutes ago) Visual Flight Rules
Wind Visibility Clouds Conditions
180° at 18 knots 15 miles
  • Few at 700' AGL
  • Few at 25,000' AGL
  • Broken at 27,000' AGL
  • Low drifting
  • Snow
Temperatures Readings
Current -21°C / -6°F
Dewpoint -25°C / -13°F
Humidity 70%
Altimeter 29.65" Hg
Pressure 1004.5 hPa
Elevation 30
METAR CYHA 192200Z 18018KT 15SM DRSN FEW007 FEW250 BKN270 M21/M25 A2965 RMK ST1CI2CI5 ST TR SNW COV/MED PACK LAST STFD OBS/NEXT 201300 UTC SLP045
Observed Flight Rules
Nov-19 @ 22:00 UTC
(41 minutes ago)
VFR
Wind Visibility
180° at 18 knots 15 miles
Clouds
  • Few at 700' AGL
  • Few at 25,000' AGL
  • Broken at 27,000' AGL
Conditions
  • Low drifting
  • Snow
Temperature Dewpoint
-21°C / -6°F -25°C / -13°F
Humidity Altimeter Pressure
70% 29.65" Hg 1004.5 hPa